Galesville, WI (54630)

9:55 AM CST on February 11, 2016 (GMT -0600)
Holmen | | Change Station
CLOSE
Current Station
Personal Weather Station
Location: Holmen, WI
Elevation: 705 ft
Nearby Weather Stations

Elev 705 ft 43.96 °N, 91.26 °W | Updated 3 seconds ago

Partly Cloudy
Partly Cloudy
5.8 °F
Feels Like 6 °F
N
0.4
Wind Variable Wind from NNE
Gusts 0.4 mph

Today
High -- | Low -- °F
--% Chance of Precip.
Yesterday
High -- | Low -- °F
Precip. -- in
Pressure 30.44 in
Visibility 10.0 miles
Clouds Clear
Windchill 6 °F
Dew Point -1 °F
Humidity 73%
Rainfall 0.00 in
Snow Depth Not available.
7:11 AM 5:28 PM
Waxing Crescent, 12% visible
METAR KLSE 111453Z 00000KT 10SM CLR M17/M20 A3035 RMK AO2 SLP307 T11721200 51009
Pressure 30.44 in
Visibility 10.0 miles
Clouds Clear
Windchill 6 °F
Dew Point -1 °F
Humidity 73%
Rainfall 0.00 in
Snow Depth Not available.
7:11 AM 5:28 PM
Waxing Crescent, 12% visible
METAR KLSE 111453Z 00000KT 10SM CLR M17/M20 A3035 RMK AO2 SLP307 T11721200 51009

10-Day Weather Forecast

Almanac

Astronomy

Feb. 11, 2016 Rise Set
Actual Time
Civil Twilight
Nautical Twilight
Astronomical Twilight
Moon
Length of Visible Light
Length of Day
Tomorrow will be .
, % of the Moon is Illuminated

Today's Extremes

State Highs State Lows

Community

WunderPhotos

Upload Photos

1,892,081 photos uploaded!

WunderBlog® & News

Nearby

Air Quality

  Air Quality AQ Index Pollutant
Not available.

Snow Depth

Station Depth Elevation

Earthquake Activity

City Distance Mag. Time & Date
Minimum magnitude displayed is 2.5.

Coastal Water Temperatures

Place Temperature

Stations

Nearby Weather Stations

Station Location Temp. Windchill Dew Point Humidity Wind Precip. Elev Updated Type
                   

Watches & Warnings

There are currently no watches in effect.